createdAt,value
2018-08-25T00:01:15.567Z,79.84
2018-08-25T00:03:43.666Z,77.64
2018-08-25T00:06:11.682Z,78.20
2018-08-25T00:08:39.713Z,78.79
2018-08-25T00:11:08.521Z,79.70
2018-08-25T00:13:36.649Z,79.83
2018-08-25T00:16:04.728Z,80.68
2018-08-25T00:18:32.818Z,80.40
2018-08-25T00:21:00.992Z,80.50
2018-08-25T00:23:29.094Z,81.54
2018-08-25T00:25:57.139Z,80.33
2018-08-25T00:28:25.160Z,81.26
2018-08-25T00:30:58.738Z,80.85
2018-08-25T00:33:26.966Z,80.68
2018-08-25T00:35:55.078Z,81.58
2018-08-25T00:38:23.190Z,81.60
2018-08-25T00:40:51.246Z,81.70
2018-08-25T00:43:19.341Z,82.49
2018-08-25T00:45:47.403Z,81.46
2018-08-25T00:48:15.508Z,81.47
2018-08-25T00:50:43.636Z,82.29
2018-08-25T00:53:11.776Z,80.98
2018-08-25T00:55:39.859Z,79.99
2018-08-25T00:58:08.247Z,81.84
2018-08-25T01:00:36.229Z,82.45
2018-08-25T01:03:04.402Z,81.11
2018-08-25T01:05:32.462Z,82.13
2018-08-25T01:08:00.643Z,83.40
2018-08-25T01:10:28.985Z,82.28
2018-08-25T01:12:57.146Z,82.69
2018-08-25T01:15:25.583Z,82.84
2018-08-25T01:17:53.618Z,82.85
2018-08-25T01:20:21.700Z,81.69
2018-08-25T01:22:49.912Z,82.74
2018-08-25T01:25:18.045Z,83.87
2018-08-25T01:27:46.102Z,83.13
2018-08-25T01:30:14.382Z,84.12
2018-08-25T01:32:42.567Z,83.38
2018-08-25T01:35:10.769Z,83.20
2018-08-25T01:37:38.840Z,82.05
2018-08-25T01:40:06.930Z,82.68
2018-08-25T01:42:34.984Z,84.22
2018-08-25T01:45:03.155Z,83.33
2018-08-25T01:47:31.180Z,83.63
2018-08-25T01:49:59.381Z,82.74
2018-08-25T01:52:27.510Z,83.75
2018-08-25T01:54:55.586Z,82.39
2018-08-25T01:57:23.585Z,82.22
2018-08-25T01:59:51.613Z,83.20
2018-08-25T02:02:19.765Z,84.11
2018-08-25T02:04:48.340Z,84.39
2018-08-25T02:07:16.539Z,84.45
2018-08-25T02:09:44.685Z,84.31
2018-08-25T02:12:12.762Z,84.64
2018-08-25T02:14:40.810Z,84.24
2018-08-25T02:17:08.820Z,83.71
2018-08-25T02:19:36.926Z,84.37
2018-08-25T02:22:04.981Z,84.19
2018-08-25T02:24:33.201Z,84.09
2018-08-25T02:27:01.342Z,85.42
2018-08-25T02:29:29.364Z,86.44
2018-08-25T02:31:57.447Z,86.23
2018-08-25T02:34:25.476Z,87.13
2018-08-25T02:36:53.643Z,87.69
2018-08-25T02:39:21.635Z,87.47
2018-08-25T02:41:49.804Z,86.71
2018-08-25T02:44:17.982Z,85.73
2018-08-25T02:46:46.162Z,86.23
2018-08-25T02:49:14.266Z,85.41
2018-08-25T02:51:42.284Z,87.26
2018-08-25T02:54:10.269Z,87.44
2018-08-25T02:56:38.376Z,87.45
2018-08-25T02:59:06.508Z,85.32
2018-08-25T03:01:34.758Z,86.71
2018-08-25T03:04:03.012Z,88.31
2018-08-25T03:06:31.036Z,88.69
2018-08-25T03:08:59.160Z,88.21
2018-08-25T03:11:27.408Z,88.18
2018-08-25T03:13:55.542Z,87.51
2018-08-25T03:16:23.679Z,87.16
2018-08-25T03:18:51.793Z,88.82
2018-08-25T03:21:20.040Z,88.26
2018-08-25T03:23:48.147Z,87.22
2018-08-25T03:26:16.177Z,88.52
2018-08-25T03:28:44.188Z,88.24
2018-08-25T03:31:12.396Z,88.71
2018-08-25T03:33:40.701Z,87.42
2018-08-25T03:36:08.790Z,87.29
2018-08-25T03:38:36.824Z,87.44
2018-08-25T03:41:05.326Z,88.21
2018-08-25T03:43:33.712Z,88.18
2018-08-25T03:46:01.734Z,87.92
2018-08-25T03:48:29.886Z,87.68
2018-08-25T03:50:58.003Z,87.29
2018-08-25T03:53:26.089Z,87.73
2018-08-25T03:55:54.278Z,88.25
2018-08-25T03:58:22.364Z,88.17
2018-08-25T04:00:50.496Z,86.98
2018-08-25T04:03:18.713Z,88.39
2018-08-25T04:05:46.779Z,86.90
2018-08-25T04:08:14.948Z,86.56
2018-08-25T04:10:43.234Z,85.64
2018-08-25T04:13:11.373Z,83.10
2018-08-25T04:15:39.410Z,80.46
2018-08-25T04:18:07.472Z,79.38
2018-08-25T04:20:35.530Z,80.23
2018-08-25T04:23:03.615Z,82.13
2018-08-25T04:25:31.788Z,83.32
2018-08-25T04:27:59.949Z,84.48
2018-08-25T04:30:28.081Z,84.74
2018-08-25T04:32:56.225Z,85.66
2018-08-25T04:35:24.288Z,85.00
2018-08-25T04:37:52.382Z,85.82
2018-08-25T04:40:20.546Z,85.28
2018-08-25T04:42:48.896Z,85.06
2018-08-25T04:45:16.992Z,84.90
2018-08-25T04:47:45.261Z,83.58
2018-08-25T04:50:13.298Z,82.85
2018-08-25T04:52:41.486Z,84.20
2018-08-25T04:55:09.558Z,85.50
2018-08-25T04:57:37.959Z,85.86
2018-08-25T05:00:06.670Z,85.35
2018-08-25T05:02:34.736Z,86.42
2018-08-25T05:05:02.904Z,86.83
2018-08-25T05:07:31.085Z,86.05
2018-08-25T05:09:59.416Z,85.80
2018-08-25T05:12:27.769Z,85.70
2018-08-25T05:14:56.108Z,85.52
2018-08-25T05:17:24.655Z,85.94
2018-08-25T05:19:53.102Z,86.33
2018-08-25T05:22:21.282Z,86.38
2018-08-25T05:24:49.518Z,85.31
2018-08-25T05:27:17.747Z,84.90
2018-08-25T05:29:46.077Z,85.54
2018-08-25T05:32:14.352Z,85.89
2018-08-25T05:34:42.437Z,85.66
2018-08-25T05:37:10.571Z,84.48
2018-08-25T05:39:38.868Z,84.20
2018-08-25T05:42:07.472Z,83.16
2018-08-25T05:44:42.217Z,82.88
2018-08-25T05:47:18.322Z,82.67
2018-08-25T05:49:51.018Z,81.97
2018-08-25T05:52:24.253Z,79.25
2018-08-25T05:54:55.518Z,79.31
2018-08-25T05:57:29.383Z,78.84
2018-08-25T06:00:02.348Z,78.92
2018-08-25T06:02:36.108Z,80.51
2018-08-25T06:05:09.238Z,80.21
2018-08-25T06:07:42.322Z,78.78
2018-08-25T06:10:13.870Z,74.17
2018-08-25T06:12:46.858Z,70.49
2018-08-25T06:15:18.390Z,71.86
2018-08-25T06:17:49.420Z,73.04
2018-08-25T06:20:21.827Z,75.03
2018-08-25T06:22:50.657Z,73.43
2018-08-25T06:25:18.745Z,72.47
2018-08-25T06:27:46.839Z,73.90
2018-08-25T06:30:15.058Z,74.62
2018-08-25T06:32:43.108Z,74.56
2018-08-25T06:35:11.193Z,72.49
2018-08-25T06:37:39.343Z,71.11
2018-08-25T06:40:07.644Z,69.33
2018-08-25T06:42:35.955Z,69.08
2018-08-25T06:45:04.312Z,69.10
2018-08-25T06:47:32.665Z,68.39
2018-08-25T06:50:00.906Z,66.23
2018-08-25T06:52:29.256Z,65.47
2018-08-25T06:54:57.605Z,64.37
2018-08-25T06:57:25.936Z,62.99
2018-08-25T06:59:54.212Z,62.93
2018-08-25T07:02:22.617Z,62.29
2018-08-25T07:04:50.979Z,62.86
2018-08-25T07:07:19.285Z,63.08
2018-08-25T07:09:47.573Z,60.45
2018-08-25T07:12:16.058Z,59.36
2018-08-25T07:14:44.579Z,60.67
2018-08-25T07:17:12.889Z,60.64
2018-08-25T07:19:41.208Z,59.00
2018-08-25T07:22:09.945Z,58.97
2018-08-25T07:24:38.363Z,58.35
2018-08-25T07:27:06.954Z,55.43
2018-08-25T07:29:38.646Z,56.13
2018-08-25T07:32:07.958Z,56.41
2018-08-25T07:34:36.808Z,53.63
2018-08-25T07:37:07.684Z,53.25
2018-08-25T07:39:36.267Z,54.25
2018-08-25T07:42:05.077Z,53.55
2018-08-25T07:44:33.928Z,52.93
2018-08-25T07:47:02.383Z,50.57
2018-08-25T07:49:30.989Z,51.15
2018-08-25T07:51:59.243Z,50.89
2018-08-25T07:54:27.768Z,50.60
2018-08-25T07:56:56.248Z,49.81
2018-08-25T07:59:24.928Z,47.63
2018-08-25T08:01:53.716Z,45.46
2018-08-25T08:04:23.046Z,44.90
2018-08-25T08:06:52.153Z,44.27
2018-08-25T08:09:23.020Z,45.44
2018-08-25T08:11:52.076Z,44.90
2018-08-25T08:14:20.551Z,43.89
2018-08-25T08:16:49.150Z,44.16
2018-08-25T08:19:17.836Z,44.03
2018-08-25T08:21:47.165Z,41.65
2018-08-25T08:24:16.869Z,42.10
2018-08-25T08:26:45.422Z,44.87
2018-08-25T08:29:13.997Z,41.32
2018-08-25T08:31:42.081Z,44.44
2018-08-25T08:34:10.239Z,40.91
2018-08-25T08:36:38.381Z,40.57
2018-08-25T08:39:08.827Z,41.15
2018-08-25T08:41:38.545Z,42.02
2018-08-25T08:44:06.895Z,41.71
2018-08-25T08:46:36.290Z,41.17
2018-08-25T08:49:06.026Z,40.26
2018-08-25T08:51:35.221Z,42.66
2018-08-25T08:54:03.356Z,43.03
2018-08-25T08:56:31.521Z,43.33
2018-08-25T08:59:00.120Z,44.01
2018-08-25T09:01:28.295Z,43.44
2018-08-25T09:03:56.743Z,43.10
2018-08-25T09:06:25.009Z,41.76
2018-08-25T09:08:53.217Z,41.55
2018-08-25T09:11:21.892Z,43.05
2018-08-25T09:13:50.384Z,41.72
2018-08-25T09:16:19.866Z,42.73
2018-08-25T09:18:48.307Z,42.95
2018-08-25T09:21:16.474Z,42.94
2018-08-25T09:23:45.095Z,40.73
2018-08-25T09:26:13.701Z,39.98
2018-08-25T09:28:42.101Z,37.44
2018-08-25T09:31:10.237Z,35.17
2018-08-25T09:33:38.564Z,36.28
2018-08-25T09:36:06.800Z,35.20
2018-08-25T09:38:35.154Z,37.61
2018-08-25T09:41:03.873Z,38.56
2018-08-25T09:43:32.143Z,39.11
2018-08-25T09:46:00.326Z,35.73
2018-08-25T09:48:28.566Z,35.70
2018-08-25T09:50:56.646Z,35.83
2018-08-25T09:53:24.891Z,34.84
2018-08-25T09:55:56.886Z,36.11
2018-08-25T09:58:25.209Z,34.51
2018-08-25T10:00:59.086Z,34.17
2018-08-25T10:03:27.391Z,34.05
2018-08-25T10:05:55.617Z,33.36
2018-08-25T10:08:23.776Z,34.12
2018-08-25T10:10:52.229Z,34.14
2018-08-25T10:13:20.496Z,34.99
2018-08-25T10:15:48.966Z,34.24
2018-08-25T10:18:17.503Z,35.03
2018-08-25T10:20:45.750Z,33.80
2018-08-25T10:23:14.392Z,34.59
2018-08-25T10:25:42.649Z,33.41
2018-08-25T10:28:11.268Z,35.79
2018-08-25T10:30:39.470Z,36.33
2018-08-25T10:33:08.128Z,37.54
2018-08-25T10:35:36.457Z,36.98
2018-08-25T10:38:04.993Z,37.23
2018-08-25T10:40:33.958Z,36.78
2018-08-25T10:43:02.202Z,38.50
2018-08-25T10:45:30.418Z,38.89
2018-08-25T10:47:58.625Z,37.54
2018-08-25T10:50:26.784Z,35.84
2018-08-25T10:52:55.060Z,36.33
2018-08-25T10:55:23.738Z,35.19
2018-08-25T10:57:52.562Z,33.72
2018-08-25T11:00:22.463Z,33.55
2018-08-25T11:02:50.959Z,32.98
2018-08-25T11:05:19.214Z,31.68
2018-08-25T11:07:47.406Z,31.85
2018-08-25T11:10:16.096Z,34.42
2018-08-25T11:12:44.713Z,33.97
2018-08-25T11:15:12.959Z,34.64
2018-08-25T11:17:41.282Z,35.97
2018-08-25T11:20:09.557Z,34.73
2018-08-25T11:22:37.752Z,35.37
2018-08-25T11:25:06.295Z,34.65
2018-08-25T11:27:34.675Z,35.27
2018-08-25T11:30:03.269Z,35.91
2018-08-25T11:32:32.106Z,36.50
2018-08-25T11:35:00.381Z,35.00
2018-08-25T11:37:29.043Z,36.18
2018-08-25T11:39:57.360Z,34.24
2018-08-25T11:42:26.430Z,34.69
2018-08-25T11:44:55.529Z,33.39
2018-08-25T11:47:24.140Z,34.55
2018-08-25T11:49:52.937Z,33.44
2018-08-25T11:52:21.869Z,35.22
2018-08-25T11:54:50.429Z,32.76
2018-08-25T11:57:19.270Z,33.98
2018-08-25T11:59:48.600Z,33.69
2018-08-25T12:02:17.497Z,33.08
2018-08-25T12:04:46.188Z,32.77
2018-08-25T12:07:14.693Z,31.97
2018-08-25T12:09:44.103Z,32.61
2018-08-25T12:12:13.189Z,33.05
2018-08-25T12:14:41.778Z,32.87
2018-08-25T12:17:10.284Z,32.48
2018-08-25T12:19:38.584Z,30.93
2018-08-25T12:22:07.075Z,30.24
2018-08-25T12:24:35.750Z,31.01
2018-08-25T12:27:04.973Z,31.40
2018-08-25T12:29:33.556Z,31.02
2018-08-25T12:32:02.086Z,32.44
2018-08-25T12:34:30.835Z,31.66
2018-08-25T12:36:59.348Z,32.17
2018-08-25T12:39:27.652Z,34.13
2018-08-25T12:41:55.951Z,33.63
2018-08-25T12:44:24.278Z,33.91
2018-08-25T12:46:52.899Z,33.91
2018-08-25T12:49:21.508Z,33.87
2018-08-25T12:51:50.308Z,32.98
2018-08-25T12:54:20.758Z,31.92
2018-08-25T12:56:49.615Z,33.40
2018-08-25T12:59:18.130Z,32.45
2018-08-25T13:01:46.545Z,32.21
2018-08-25T13:04:14.995Z,34.02
2018-08-25T13:06:43.666Z,34.28
2018-08-25T13:09:12.428Z,33.71
2018-08-25T13:11:40.737Z,34.29
2018-08-25T13:14:09.365Z,36.83
2018-08-25T13:16:37.856Z,36.73
2018-08-25T13:19:06.300Z,39.12
2018-08-25T13:21:34.631Z,38.30
2018-08-25T13:24:02.920Z,40.33
2018-08-25T13:26:31.319Z,40.50
2018-08-25T13:29:00.496Z,42.19
2018-08-25T13:31:29.020Z,42.67
2018-08-25T13:33:57.594Z,45.93
2018-08-25T13:36:25.960Z,48.67
2018-08-25T13:38:54.441Z,49.86
2018-08-25T13:41:22.868Z,51.35
2018-08-25T13:43:51.259Z,49.79
2018-08-25T13:46:19.573Z,54.34
2018-08-25T13:48:47.906Z,58.38
2018-08-25T13:51:16.308Z,63.00
2018-08-25T13:53:58.673Z,67.60
2018-08-25T13:56:28.682Z,75.23
2018-08-25T13:58:57.244Z,74.44
2018-08-25T14:01:25.414Z,74.08
2018-08-25T14:03:53.592Z,75.28
2018-08-25T14:06:21.895Z,75.11
2018-08-25T14:08:50.261Z,76.25
2018-08-25T14:11:18.794Z,76.28
2018-08-25T14:13:47.068Z,80.07
2018-08-25T14:16:15.947Z,80.20
2018-08-25T14:18:44.166Z,81.17
2018-08-25T14:21:12.563Z,79.86
2018-08-25T14:23:41.001Z,80.78
2018-08-25T14:26:09.580Z,80.82
2018-08-25T14:28:37.866Z,85.48
2018-08-25T14:31:06.348Z,83.54
2018-08-25T14:33:34.593Z,85.09
2018-08-25T14:36:02.691Z,84.57
2018-08-25T14:38:30.836Z,85.09
2018-08-25T14:40:58.951Z,84.36
2018-08-25T14:43:27.043Z,87.00
2018-08-25T14:45:55.107Z,85.60
2018-08-25T14:48:23.235Z,84.98
2018-08-25T14:50:51.600Z,82.88
2018-08-25T14:53:19.811Z,83.59
2018-08-25T14:55:48.038Z,84.96
2018-08-25T14:58:16.214Z,87.62
2018-08-25T15:00:44.543Z,85.90
2018-08-25T15:03:12.633Z,84.77
2018-08-25T15:05:41.375Z,85.71
2018-08-25T15:08:09.906Z,85.13
2018-08-25T15:10:37.948Z,83.23
2018-08-25T15:13:06.181Z,82.64
2018-08-25T15:15:34.512Z,82.36
2018-08-25T15:18:02.696Z,83.37
2018-08-25T15:20:30.895Z,83.25
2018-08-25T15:22:59.113Z,81.45
2018-08-25T15:25:27.255Z,78.95
2018-08-25T15:27:55.512Z,80.59
2018-08-25T15:30:23.812Z,80.08
2018-08-25T15:32:52.192Z,78.19
2018-08-25T15:35:20.487Z,77.94
2018-08-25T15:37:48.850Z,76.57
2018-08-25T15:40:17.030Z,75.08
2018-08-25T15:42:45.153Z,76.79
2018-08-25T15:45:13.397Z,73.33
2018-08-25T15:47:41.650Z,72.32
2018-08-25T15:50:09.838Z,71.00
2018-08-25T15:52:38.286Z,72.42
2018-08-25T15:55:06.993Z,71.22
2018-08-25T15:57:35.543Z,72.16
2018-08-25T16:00:03.797Z,72.11
2018-08-25T16:02:31.957Z,69.92
2018-08-25T16:05:00.115Z,67.89
2018-08-25T16:07:28.579Z,72.46
2018-08-25T16:09:56.906Z,68.60
2018-08-25T16:12:25.678Z,70.82
2018-08-25T16:14:54.141Z,76.54
2018-08-25T16:17:22.675Z,79.80
2018-08-25T16:19:51.228Z,80.24
2018-08-25T16:22:19.443Z,79.88
2018-08-25T16:24:47.795Z,81.66
2018-08-25T16:27:16.301Z,81.55
2018-08-25T16:29:44.620Z,82.89
2018-08-25T16:32:13.134Z,81.26
2018-08-25T16:34:42.870Z,80.22
2018-08-25T16:37:11.678Z,83.37
2018-08-25T16:39:40.193Z,81.77
2018-08-25T16:42:09.075Z,82.50
2018-08-25T16:44:37.213Z,82.66
2018-08-25T16:47:05.712Z,82.31
2018-08-25T16:49:34.510Z,81.27
2018-08-25T16:52:03.281Z,81.85
2018-08-25T16:54:31.849Z,83.12
2018-08-25T16:57:00.371Z,83.46
2018-08-25T16:59:29.011Z,84.21
2018-08-25T17:01:57.472Z,83.81
2018-08-25T17:04:26.483Z,84.21
2018-08-25T17:06:55.073Z,84.98
2018-08-25T17:09:23.712Z,85.16
2018-08-25T17:11:52.332Z,85.03
2018-08-25T17:14:21.005Z,85.10
2018-08-25T17:16:49.805Z,86.07
2018-08-25T17:19:18.693Z,84.39
2018-08-25T17:21:47.380Z,84.27
2018-08-25T17:24:16.011Z,84.47
2018-08-25T17:26:44.552Z,85.26
2018-08-25T17:29:13.418Z,85.77
2018-08-25T17:31:42.643Z,85.09
2018-08-25T17:34:11.199Z,86.05
2018-08-25T17:36:39.681Z,86.80
2018-08-25T17:39:10.264Z,86.46
2018-08-25T17:41:38.852Z,86.12
2018-08-25T17:44:07.335Z,88.06
2018-08-25T17:46:35.879Z,88.56
2018-08-25T17:49:04.367Z,87.83
2018-08-25T17:51:32.868Z,86.84
2018-08-25T17:54:01.501Z,86.18
2018-08-25T17:56:30.107Z,85.39
2018-08-25T17:58:58.795Z,85.38
2018-08-25T18:01:27.404Z,83.97
2018-08-25T18:03:56.000Z,84.97
2018-08-25T18:06:24.503Z,83.71
2018-08-25T18:08:52.947Z,83.43
2018-08-25T18:11:23.180Z,83.00
2018-08-25T18:13:51.929Z,85.34
2018-08-25T18:16:20.354Z,84.88
2018-08-25T18:18:49.291Z,85.66
2018-08-25T18:21:17.910Z,86.59
2018-08-25T18:23:46.420Z,86.08
2018-08-25T18:26:14.994Z,86.99
2018-08-25T18:28:43.675Z,87.91
2018-08-25T18:31:12.296Z,88.36
2018-08-25T18:33:40.657Z,88.60
2018-08-25T18:36:09.044Z,89.47
2018-08-25T18:38:37.539Z,87.90
2018-08-25T18:41:06.129Z,87.38
2018-08-25T18:43:34.704Z,88.09
2018-08-25T18:46:06.330Z,87.38
2018-08-25T18:48:34.890Z,88.11
2018-08-25T18:51:03.408Z,87.48
2018-08-25T18:53:31.943Z,87.08
2018-08-25T18:56:00.527Z,87.48
2018-08-25T18:58:29.053Z,87.68
2018-08-25T19:00:57.683Z,87.86
2018-08-25T19:03:26.678Z,88.27
2018-08-25T19:05:55.230Z,87.46
2018-08-25T19:08:23.893Z,89.33
2018-08-25T19:10:52.681Z,88.55
2018-08-25T19:13:21.107Z,88.15
2018-08-25T19:15:49.603Z,89.87
2018-08-25T19:18:18.515Z,89.61
2018-08-25T19:20:46.974Z,89.77
2018-08-25T19:23:15.915Z,89.52
2018-08-25T19:25:44.499Z,90.61
2018-08-25T19:28:13.147Z,90.53
2018-08-25T19:30:41.581Z,90.49
2018-08-25T19:33:10.031Z,91.35
2018-08-25T19:35:38.682Z,89.46
2018-08-25T19:38:07.467Z,89.71
2018-08-25T19:40:36.570Z,89.29
2018-08-25T19:43:05.936Z,90.17
2018-08-25T19:45:34.487Z,90.86
2018-08-25T19:48:03.153Z,91.02
2018-08-25T19:50:32.196Z,91.69
2018-08-25T19:53:01.044Z,90.95
2018-08-25T19:55:30.340Z,91.51
2018-08-25T19:57:58.886Z,90.70
2018-08-25T20:00:27.872Z,90.23
2018-08-25T20:02:56.440Z,90.09
2018-08-25T20:05:25.175Z,90.82
2018-08-25T20:07:53.812Z,91.03
2018-08-25T20:10:22.521Z,91.11
2018-08-25T20:12:51.077Z,92.01
2018-08-25T20:15:19.516Z,91.04
2018-08-25T20:17:48.296Z,90.92
2018-08-25T20:20:16.761Z,90.75
2018-08-25T20:22:45.635Z,90.32
2018-08-25T20:25:14.188Z,91.92
2018-08-25T20:27:42.835Z,90.63
2018-08-25T20:30:11.520Z,90.93
2018-08-25T20:32:40.108Z,91.02
2018-08-25T20:35:08.795Z,91.77
2018-08-25T20:37:37.237Z,90.93
2018-08-25T20:40:05.846Z,91.62
2018-08-25T20:42:34.557Z,91.64
2018-08-25T20:45:03.239Z,91.39
2018-08-25T20:47:31.698Z,91.63
2018-08-25T20:50:00.292Z,92.82
2018-08-25T20:52:29.090Z,92.45
2018-08-25T20:54:57.809Z,92.96
2018-08-25T20:57:26.451Z,92.29
2018-08-25T20:59:54.721Z,92.50
2018-08-25T21:02:23.304Z,92.92
2018-08-25T21:04:51.908Z,93.21
2018-08-25T21:07:20.424Z,92.85
2018-08-25T21:09:48.950Z,93.38
2018-08-25T21:12:17.281Z,92.89
2018-08-25T21:14:45.756Z,92.23
2018-08-25T21:17:14.206Z,93.76
2018-08-25T21:19:42.466Z,93.22
2018-08-25T21:22:11.024Z,93.08
2018-08-25T21:24:39.473Z,92.96
2018-08-25T21:27:07.815Z,92.60
2018-08-25T21:29:36.234Z,94.16
2018-08-25T21:32:04.602Z,93.73
2018-08-25T21:34:33.218Z,94.08
2018-08-25T21:37:01.631Z,94.28
2018-08-25T21:39:29.991Z,93.52
2018-08-25T21:41:58.391Z,93.15
2018-08-25T21:44:26.773Z,93.93
2018-08-25T21:46:55.412Z,94.27
2018-08-25T21:49:23.741Z,93.35
2018-08-25T21:51:52.088Z,94.56
2018-08-25T21:54:20.427Z,94.45
2018-08-25T21:56:48.658Z,94.25
2018-08-25T21:59:17.057Z,95.25
2018-08-25T22:08:37.927Z,95.58
2018-08-25T22:11:06.381Z,96.33
2018-08-25T22:13:34.554Z,95.79
2018-08-25T22:16:02.745Z,95.90
2018-08-25T22:18:30.803Z,95.97
2018-08-25T22:20:58.991Z,95.20
2018-08-25T22:23:27.045Z,95.18
2018-08-25T22:25:55.315Z,96.42
2018-08-25T22:28:23.426Z,96.78
2018-08-25T22:30:51.515Z,95.84
2018-08-25T22:33:19.557Z,96.50
2018-08-25T22:35:47.824Z,95.61
2018-08-25T22:38:15.883Z,95.63
2018-08-25T22:40:43.992Z,95.90
2018-08-25T22:43:12.215Z,95.74
2018-08-25T22:45:40.342Z,96.06
2018-08-25T22:48:08.344Z,97.51
2018-08-25T22:50:36.519Z,96.13
2018-08-25T22:53:04.639Z,95.28
2018-08-25T22:55:32.803Z,95.82
2018-08-25T22:58:00.851Z,95.57
2018-08-25T23:00:28.965Z,96.69
2018-08-25T23:02:57.143Z,96.57
2018-08-25T23:05:25.219Z,96.50
2018-08-25T23:07:53.243Z,96.33
2018-08-25T23:10:21.428Z,98.00
2018-08-25T23:12:49.618Z,96.79
2018-08-25T23:15:17.716Z,97.16
2018-08-25T23:17:45.710Z,97.74
2018-08-25T23:20:13.940Z,97.46
2018-08-25T23:22:42.127Z,96.68
2018-08-25T23:25:10.126Z,97.25
2018-08-25T23:27:38.211Z,97.01
2018-08-25T23:30:06.354Z,96.51
2018-08-25T23:32:34.421Z,96.93
2018-08-25T23:35:02.484Z,97.24
2018-08-25T23:37:30.569Z,96.71
2018-08-25T23:39:58.719Z,97.56
2018-08-25T23:42:26.930Z,97.43
2018-08-25T23:44:55.018Z,97.70
2018-08-25T23:47:23.096Z,97.43
2018-08-25T23:49:51.147Z,97.95
2018-08-25T23:52:19.131Z,98.59
2018-08-25T23:54:47.182Z,97.73
2018-08-25T23:57:15.206Z,97.67
2018-08-25T23:59:43.361Z,97.74
